Time;durP1;ratioP1;P1;durP2;ratioP2;P2;SDS_P1;SDS_P2;PMS_P1;PMS_P2;Temp;Humidity;BMP_temperature;BMP_pressure;BME280_temperature;BME280_humidity;BME280_pressure;Samples;Min_cycle;Max_cycle;Signal;HPM_P1;HPM_P2
2022/06/01 00:00:37;;;;;;;5.83;3.50;;;;;;;;;;5094609;28;20074;-79
2022/06/01 00:03:04;;;;;;;4.83;3.17;;;;;;;;;;5094685;28;20049;-80
2022/06/01 00:05:31;;;;;;;7.23;3.40;;;;;;;;;;5094127;28;20024;-80
2022/06/01 00:07:58;;;;;;;4.77;2.87;;;;;;;;;;5092897;28;20475;-81
2022/06/01 00:10:24;;;;;;;4.97;2.90;;;;;;;;;;5087782;28;20036;-80
2022/06/01 00:12:51;;;;;;;7.27;3.33;;;;;;;;;;5088547;28;20032;-80
2022/06/01 00:15:19;;;;;;;5.10;3.00;;;;;;;;;;5083727;28;20140;-81
2022/06/01 00:17:46;;;;;;;8.80;3.57;;;;;;;;;;5088585;28;20030;-81
2022/06/01 00:20:14;;;;;;;6.03;3.27;;;;;;;;;;5095147;28;20562;-80
2022/06/01 00:22:41;;;;;;;6.80;3.37;;;;;;;;;;5097111;28;20036;-82
2022/06/01 00:25:09;;;;;;;8.07;4.27;;;;;;;;;;5093772;28;20119;-79
2022/06/01 00:27:36;;;;;;;7.77;4.60;;;;;;;;;;5093248;28;20038;-78
2022/06/01 00:30:07;;;;;;;10.50;4.77;;;;;;;;;;5092703;28;20031;-77
2022/06/01 00:32:34;;;;;;;11.13;5.03;;;;;;;;;;5087107;28;20085;-78
2022/06/01 00:35:00;;;;;;;10.57;5.60;;;;;;;;;;5087705;28;20035;-78
2022/06/01 00:37:27;;;;;;;10.57;5.33;;;;;;;;;;5088968;28;20029;-77
2022/06/01 00:39:54;;;;;;;16.87;6.03;;;;;;;;;;5088497;28;20081;-78
2022/06/01 00:42:23;;;;;;;9.07;5.67;;;;;;;;;;5092444;28;20027;-78
2022/06/01 00:44:50;;;;;;;10.37;5.23;;;;;;;;;;5093975;28;20024;-78
2022/06/01 00:47:17;;;;;;;10.30;5.77;;;;;;;;;;5093534;28;20034;-78
2022/06/01 00:49:46;;;;;;;8.60;4.80;;;;;;;;;;5093247;28;20067;-78
2022/06/01 00:52:13;;;;;;;9.03;4.87;;;;;;;;;;5093540;28;20036;-78
2022/06/01 00:54:40;;;;;;;9.33;5.10;;;;;;;;;;5088994;28;20374;-78
2022/06/01 00:57:09;;;;;;;6.67;4.30;;;;;;;;;;5088266;28;20028;-79
2022/06/01 00:59:37;;;;;;;5.03;3.57;;;;;;;;;;5088118;28;20074;-78
2022/06/01 01:02:04;;;;;;;5.77;3.63;;;;;;;;;;5088201;28;20020;-78
2022/06/01 01:04:33;;;;;;;5.40;3.17;;;;;;;;;;5091284;28;20117;-78
2022/06/01 01:07:06;;;;;;;5.13;2.70;;;;;;;;;;5092813;28;20020;-78
2022/06/01 01:09:34;;;;;;;4.23;2.63;;;;;;;;;;5093353;28;20055;-79
2022/06/01 01:12:08;;;;;;;7.23;3.40;;;;;;;;;;5092974;28;20036;-78
2022/06/01 01:14:36;;;;;;;15.13;7.17;;;;;;;;;;5092940;28;20034;-81
2022/06/01 01:17:04;;;;;;;20.37;6.87;;;;;;;;;;5088588;28;20025;-79
2022/06/01 01:19:38;;;;;;;12.43;5.03;;;;;;;;;;5087765;28;20382;-79
2022/06/01 01:22:07;;;;;;;12.50;4.70;;;;;;;;;;5087154;28;20048;-78
2022/06/01 01:24:39;;;;;;;13.93;5.93;;;;;;;;;;5087394;28;20356;-79
2022/06/01 01:27:07;;;;;;;16.27;7.20;;;;;;;;;;5092050;28;20024;-79
2022/06/01 01:29:37;;;;;;;14.63;7.07;;;;;;;;;;5093020;28;20047;-79
2022/06/01 01:32:05;;;;;;;19.07;8.53;;;;;;;;;;5092472;28;20036;-79
2022/06/01 01:34:33;;;;;;;71.57;28.23;;;;;;;;;;5093158;28;20030;-79
2022/06/01 01:37:02;;;;;;;105.77;41.00;;;;;;;;;;5092371;28;20028;-79
2022/06/01 01:39:31;;;;;;;210.93;80.13;;;;;;;;;;5087822;28;20021;-79
2022/06/01 01:41:58;;;;;;;146.20;55.87;;;;;;;;;;5087433;28;20074;-79
2022/06/01 01:44:30;;;;;;;123.63;50.40;;;;;;;;;;5087179;28;20020;-79
2022/06/01 01:46:58;;;;;;;121.30;47.33;;;;;;;;;;5087044;28;20039;-79
2022/06/01 01:49:27;;;;;;;88.77;36.77;;;;;;;;;;5090838;28;20035;-79
2022/06/01 01:51:55;;;;;;;28.83;13.80;;;;;;;;;;5091902;28;20031;-80
2022/06/01 01:54:36;;;;;;;16.10;9.80;;;;;;;;;;5092698;28;20479;-79
2022/06/01 01:57:22;;;;;;;13.00;8.77;;;;;;;;;;5092668;28;20028;-79
2022/06/01 01:59:54;;;;;;;10.30;7.73;;;;;;;;;;5092127;28;20016;-78
2022/06/01 02:02:41;;;;;;;14.33;7.83;;;;;;;;;;5087039;28;20111;-79
2022/06/01 02:08:04;;;;;;;;;;;;;;;;;;5087482;28;20035;-78
2022/06/01 02:13:17;;;;;;;16.90;9.17;;;;;;;;;;5092463;28;20402;-77
2022/06/01 02:15:46;;;;;;;10.63;7.33;;;;;;;;;;5092257;28;20462;-77
2022/06/01 02:18:15;;;;;;;14.60;8.13;;;;;;;;;;5092091;28;20046;-77
2022/06/01 02:20:44;;;;;;;85.50;31.27;;;;;;;;;;5091978;28;20027;-77
2022/06/01 02:23:14;;;;;;;65.73;24.80;;;;;;;;;;5089493;28;20039;-77
2022/06/01 02:25:42;;;;;;;37.67;17.70;;;;;;;;;;5086841;28;20390;-76
2022/06/01 02:28:09;;;;;;;21.03;11.20;;;;;;;;;;5086815;28;20047;-77
2022/06/01 02:30:38;;;;;;;16.33;9.60;;;;;;;;;;5086600;28;20371;-77
2022/06/01 02:33:06;;;;;;;56.90;22.13;;;;;;;;;;5088887;28;20111;-77
2022/06/01 02:35:36;;;;;;;158.13;53.30;;;;;;;;;;5091495;28;20016;-77
2022/06/01 02:38:04;;;;;;;106.10;36.37;;;;;;;;;;5091381;28;20073;-77
2022/06/01 02:40:31;;;;;;;93.67;36.93;;;;;;;;;;5091701;28;20020;-77
2022/06/01 02:42:58;;;;;;;57.37;27.13;;;;;;;;;;5092148;28;20504;-76
2022/06/01 02:45:26;;;;;;;71.90;30.53;;;;;;;;;;5089236;28;20028;-77
2022/06/01 02:47:54;;;;;;;48.67;20.90;;;;;;;;;;5086736;28;20029;-76
2022/06/01 02:50:23;;;;;;;31.33;15.80;;;;;;;;;;5086469;28;20039;-77
2022/06/01 02:52:49;;;;;;;42.77;22.40;;;;;;;;;;5086311;28;20486;-76
2022/06/01 02:55:17;;;;;;;53.60;23.17;;;;;;;;;;5088409;28;20060;-75
2022/06/01 02:57:44;;;;;;;14.37;8.53;;;;;;;;;;5092143;28;20474;-75
2022/06/01 03:00:20;;;;;;;14.33;7.53;;;;;;;;;;5083290;28;20073;-75
2022/06/01 03:02:48;;;;;;;15.00;7.73;;;;;;;;;;5071581;28;20538;-74
2022/06/01 03:05:16;;;;;;;22.83;10.13;;;;;;;;;;5071609;28;20168;-72
2022/06/01 03:07:43;;;;;;;8.13;4.60;;;;;;;;;;5070819;28;20021;-74
2022/06/01 03:10:10;;;;;;;8.20;3.37;;;;;;;;;;5086352;28;20425;-73
2022/06/01 03:12:37;;;;;;;6.63;2.60;;;;;;;;;;5086184;28;20081;-70
2022/06/01 03:15:04;;;;;;;5.60;2.83;;;;;;;;;;5085727;28;20235;-71
2022/06/01 03:17:31;;;;;;;12.67;6.00;;;;;;;;;;5088014;28;20149;-70
2022/06/01 03:19:58;;;;;;;4.27;2.87;;;;;;;;;;5090915;28;20111;-70
2022/06/01 03:22:24;;;;;;;3.93;3.10;;;;;;;;;;5091337;28;20032;-71
2022/06/01 03:24:51;;;;;;;5.50;3.43;;;;;;;;;;5091887;28;20032;-71
2022/06/01 03:27:18;;;;;;;4.20;3.20;;;;;;;;;;5091853;28;20028;-74
2022/06/01 03:29:45;;;;;;;6.93;3.53;;;;;;;;;;5092625;28;20103;-75
2022/06/01 03:32:12;;;;;;;7.97;4.63;;;;;;;;;;5090117;28;20553;-71
2022/06/01 03:34:39;;;;;;;21.33;7.97;;;;;;;;;;5085248;28;20149;-72
2022/06/01 03:37:06;;;;;;;16.60;6.53;;;;;;;;;;5090247;28;20024;-71
2022/06/01 03:39:32;;;;;;;85.50;32.47;;;;;;;;;;5090878;28;20023;-72
2022/06/01 03:41:59;;;;;;;73.40;25.07;;;;;;;;;;5094817;28;20032;-73
2022/06/01 03:47:11;;;;;;;;;;;;;;;;;;5095308;28;20169;-74
2022/06/01 03:49:38;;;;;;;79.07;27.60;;;;;;;;;;5095062;28;19911;-74
2022/06/01 03:52:05;;;;;;;119.53;42.27;;;;;;;;;;5093207;28;20161;-73
2022/06/01 03:54:32;;;;;;;109.93;38.17;;;;;;;;;;5089618;28;20024;-73
2022/06/01 03:56:59;;;;;;;32.37;14.63;;;;;;;;;;5091026;28;20024;-74
2022/06/01 03:59:25;;;;;;;20.57;7.37;;;;;;;;;;5089227;28;20518;-70
2022/06/01 04:01:52;;;;;;;7.23;3.90;;;;;;;;;;5090299;28;20089;-71
2022/06/01 04:04:18;;;;;;;6.33;3.10;;;;;;;;;;5094870;28;20027;-74
2022/06/01 04:06:45;;;;;;;4.23;2.33;;;;;;;;;;5094342;28;20051;-75
2022/06/01 04:09:12;;;;;;;8.43;3.00;;;;;;;;;;5082357;28;20063;-73
2022/06/01 04:11:38;;;;;;;5.00;3.10;;;;;;;;;;5074341;28;20033;-71
2022/06/01 04:14:05;;;;;;;5.23;2.90;;;;;;;;;;5073273;28;20522;-75
2022/06/01 04:16:31;;;;;;;6.67;2.80;;;;;;;;;;5069207;28;20066;-73
2022/06/01 04:18:59;;;;;;;3.73;2.50;;;;;;;;;;5068893;28;20053;-73
2022/06/01 04:21:26;;;;;;;4.33;2.43;;;;;;;;;;5068705;28;20025;-71
2022/06/01 04:23:56;;;;;;;4.60;2.40;;;;;;;;;;5077295;28;20444;-74
2022/06/01 04:26:23;;;;;;;3.47;2.30;;;;;;;;;;5094368;28;20081;-74
2022/06/01 04:28:49;;;;;;;4.20;2.63;;;;;;;;;;5075957;28;20032;-75
2022/06/01 04:31:16;;;;;;;4.50;2.50;;;;;;;;;;5093811;28;20475;-73
2022/06/01 04:33:43;;;;;;;3.70;2.23;;;;;;;;;;5094419;28;20047;-73
2022/06/01 04:36:10;;;;;;;3.40;2.17;;;;;;;;;;5093406;28;20020;-72
2022/06/01 04:38:37;;;;;;;3.80;2.10;;;;;;;;;;5088585;28;20020;-73
2022/06/01 04:41:04;;;;;;;15.10;5.77;;;;;;;;;;5087868;28;20058;-73
2022/06/01 04:43:31;;;;;;;35.27;12.13;;;;;;;;;;5088929;28;20020;-75
2022/06/01 04:45:58;;;;;;;31.47;11.77;;;;;;;;;;5089002;28;20098;-72
2022/06/01 04:48:25;;;;;;;9.93;4.90;;;;;;;;;;5093643;28;20055;-74
2022/06/01 04:50:53;;;;;;;6.27;3.50;;;;;;;;;;5093467;28;20059;-74
2022/06/01 04:53:19;;;;;;;7.57;3.30;;;;;;;;;;5093185;28;20024;-75
2022/06/01 04:55:46;;;;;;;5.27;2.90;;;;;;;;;;5093438;28;20114;-74
2022/06/01 04:58:13;;;;;;;4.23;2.50;;;;;;;;;;5093581;28;20051;-74
2022/06/01 05:00:41;;;;;;;3.40;1.90;;;;;;;;;;5088673;28;20103;-72
2022/06/01 05:03:07;;;;;;;9.67;4.33;;;;;;;;;;5088629;28;20030;-74
2022/06/01 05:05:39;;;;;;;82.53;32.63;;;;;;;;;;5087981;28;20124;-70
2022/06/01 05:08:06;;;;;;;40.73;17.80;;;;;;;;;;5085314;28;20115;-72
2022/06/01 05:10:34;;;;;;;38.17;14.60;;;;;;;;;;5071906;28;20475;-71
2022/06/01 05:13:01;;;;;;;39.47;14.30;;;;;;;;;;5073013;28;20025;-71
2022/06/01 05:15:27;;;;;;;24.17;9.20;;;;;;;;;;5073278;28;20471;-71
2022/06/01 05:17:54;;;;;;;11.80;5.57;;;;;;;;;;5073179;28;20035;-74
2022/06/01 05:20:21;;;;;;;12.60;6.10;;;;;;;;;;5072641;28;20028;-74
2022/06/01 05:22:48;;;;;;;13.07;5.50;;;;;;;;;;5081877;28;20035;-74
2022/06/01 05:25:14;;;;;;;11.07;5.53;;;;;;;;;;5087558;28;20039;-75
2022/06/01 05:27:41;;;;;;;8.90;4.63;;;;;;;;;;5087581;28;20024;-75
2022/06/01 05:30:08;;;;;;;7.53;4.20;;;;;;;;;;5087206;28;20414;-74
2022/06/01 05:32:34;;;;;;;8.80;3.63;;;;;;;;;;5091032;28;20058;-74
2022/06/01 05:35:02;;;;;;;14.90;6.33;;;;;;;;;;5092922;28;20020;-74
2022/06/01 05:37:28;;;;;;;61.27;21.47;;;;;;;;;;5092701;28;20124;-74
2022/06/01 05:39:55;;;;;;;21.23;8.83;;;;;;;;;;5092822;28;20055;-75
2022/06/01 05:42:21;;;;;;;16.37;8.07;;;;;;;;;;5092061;28;20027;-74
2022/06/01 05:44:48;;;;;;;12.63;6.53;;;;;;;;;;5088924;28;20020;-74
2022/06/01 05:47:15;;;;;;;10.30;4.20;;;;;;;;;;5087405;28;20473;-74
2022/06/01 05:49:41;;;;;;;11.10;5.13;;;;;;;;;;5087332;28;20436;-74
2022/06/01 05:52:08;;;;;;;15.50;5.93;;;;;;;;;;5087023;28;20092;-74
2022/06/01 05:54:35;;;;;;;14.50;6.23;;;;;;;;;;5090250;28;20016;-74
2022/06/01 05:57:01;;;;;;;11.83;6.07;;;;;;;;;;5091927;28;20031;-74
2022/06/01 05:59:28;;;;;;;10.70;5.83;;;;;;;;;;5092036;28;20502;-74
2022/06/01 06:01:54;;;;;;;17.20;7.17;;;;;;;;;;5092591;28;20036;-74
2022/06/01 06:04:21;;;;;;;15.20;5.17;;;;;;;;;;5092595;28;20020;-73
2022/06/01 06:06:49;;;;;;;10.07;5.10;;;;;;;;;;5089429;28;20095;-74
2022/06/01 06:09:15;;;;;;;9.67;5.20;;;;;;;;;;5086889;28;20062;-73
2022/06/01 06:11:42;;;;;;;7.07;4.20;;;;;;;;;;5086856;28;20032;-73
2022/06/01 06:14:09;;;;;;;9.67;3.77;;;;;;;;;;5086392;28;20063;-74
2022/06/01 06:16:37;;;;;;;9.10;4.30;;;;;;;;;;5089185;28;20027;-74
2022/06/01 06:19:04;;;;;;;10.63;5.30;;;;;;;;;;5092229;28;20058;-74
2022/06/01 06:21:31;;;;;;;29.87;10.73;;;;;;;;;;5092178;28;20383;-73
2022/06/01 06:23:59;;;;;;;29.37;11.53;;;;;;;;;;5092318;28;20028;-73
2022/06/01 06:26:25;;;;;;;29.27;11.20;;;;;;;;;;5092409;28;20020;-74
2022/06/01 06:28:52;;;;;;;9.57;5.33;;;;;;;;;;5089314;28;20411;-73
2022/06/01 06:31:19;;;;;;;8.93;4.77;;;;;;;;;;5086394;28;20036;-74
2022/06/01 06:33:45;;;;;;;5.70;3.23;;;;;;;;;;5086537;28;20027;-73
2022/06/01 06:36:14;;;;;;;20.17;9.83;;;;;;;;;;5086855;28;20379;-74
2022/06/01 06:38:41;;;;;;;51.73;18.70;;;;;;;;;;5088757;28;20028;-73
2022/06/01 06:41:08;;;;;;;19.57;8.03;;;;;;;;;;5092090;28;20032;-73
2022/06/01 06:43:36;;;;;;;61.57;24.63;;;;;;;;;;5092094;28;20359;-73
2022/06/01 06:46:07;;;;;;;20.70;10.43;;;;;;;;;;5091320;28;20427;-73
2022/06/01 06:48:34;;;;;;;9.13;5.03;;;;;;;;;;5092051;28;20091;-73
2022/06/01 06:51:01;;;;;;;12.77;6.03;;;;;;;;;;5089465;28;20498;-73
2022/06/01 06:53:28;;;;;;;6.27;4.47;;;;;;;;;;5086311;28;20433;-73
2022/06/01 06:55:55;;;;;;;5.37;3.97;;;;;;;;;;5086578;28;20020;-73
2022/06/01 06:58:22;;;;;;;12.13;5.10;;;;;;;;;;5086588;28;20028;-73
2022/06/01 07:00:48;;;;;;;10.40;4.80;;;;;;;;;;5087610;28;20028;-73
2022/06/01 07:03:15;;;;;;;7.80;4.80;;;;;;;;;;5091887;28;20120;-73
2022/06/01 07:08:27;;;;;;;36.05;14.15;;;;;;;;;;5095639;28;20039;-72
2022/06/01 07:10:55;;;;;;;19.40;8.97;;;;;;;;;;5095695;28;20040;-73
2022/06/01 07:13:22;;;;;;;9.50;5.73;;;;;;;;;;5092735;28;20497;-73
2022/06/01 07:15:49;;;;;;;8.63;4.90;;;;;;;;;;5090092;28;20383;-73
2022/06/01 07:18:15;;;;;;;7.40;4.63;;;;;;;;;;5089821;28;20028;-72
2022/06/01 07:20:42;;;;;;;7.33;4.13;;;;;;;;;;5090233;28;20028;-72
2022/06/01 07:23:09;;;;;;;6.23;3.97;;;;;;;;;;5091786;28;20099;-72
2022/06/01 07:25:35;;;;;;;6.17;4.37;;;;;;;;;;5095313;28;20020;-72
2022/06/01 07:28:02;;;;;;;5.47;4.20;;;;;;;;;;5095381;28;20024;-72
2022/06/01 07:30:28;;;;;;;6.17;3.93;;;;;;;;;;5094849;28;20032;-72
2022/06/01 07:32:55;;;;;;;5.23;4.00;;;;;;;;;;5095314;28;20036;-72
2022/06/01 07:35:22;;;;;;;6.43;3.60;;;;;;;;;;5092670;28;20032;-73
2022/06/01 07:43:20;;;;;;;4.47;3.45;;;;;;;;;;5089738;28;20125;-72
2022/06/01 07:45:47;;;;;;;5.43;4.00;;;;;;;;;;5092373;28;20023;-71
2022/06/01 07:48:14;;;;;;;6.83;3.80;;;;;;;;;;5095106;28;20055;-72
2022/06/01 07:50:41;;;;;;;4.57;3.10;;;;;;;;;;5094928;28;20122;-72
2022/06/01 07:53:08;;;;;;;6.73;3.80;;;;;;;;;;5094697;28;20050;-72
2022/06/01 07:55:36;;;;;;;9.30;4.87;;;;;;;;;;5094918;28;20051;-72
2022/06/01 07:58:03;;;;;;;16.03;7.60;;;;;;;;;;5091807;28;20110;-72
2022/06/01 08:00:30;;;;;;;12.60;6.27;;;;;;;;;;5089080;28;20030;-72
2022/06/01 08:02:57;;;;;;;105.63;39.13;;;;;;;;;;5089215;28;20019;-72
2022/06/01 08:05:24;;;;;;;43.63;18.83;;;;;;;;;;5089455;28;20032;-72
2022/06/01 08:07:51;;;;;;;30.80;13.57;;;;;;;;;;5091538;28;20023;-72
2022/06/01 08:10:19;;;;;;;22.60;8.47;;;;;;;;;;5094345;28;20024;-72
2022/06/01 08:15:31;;;;;;;8.45;4.82;;;;;;;;;;5093948;28;20548;-71
2022/06/01 08:17:58;;;;;;;6.47;4.03;;;;;;;;;;5094318;28;20017;-72
2022/06/01 08:20:25;;;;;;;6.60;4.47;;;;;;;;;;5091079;28;20042;-72
2022/06/01 08:22:52;;;;;;;6.33;3.43;;;;;;;;;;5088874;28;20089;-72
2022/06/01 08:25:19;;;;;;;4.80;3.23;;;;;;;;;;5088840;28;20103;-72
2022/06/01 08:27:47;;;;;;;5.37;3.03;;;;;;;;;;5088824;28;20020;-72
2022/06/01 08:30:14;;;;;;;4.70;3.03;;;;;;;;;;5091347;28;20012;-72
2022/06/01 08:32:41;;;;;;;6.87;2.50;;;;;;;;;;5093738;28;20071;-72
2022/06/01 08:35:08;;;;;;;7.87;3.20;;;;;;;;;;5094209;28;20047;-72
2022/06/01 08:37:35;;;;;;;4.50;3.37;;;;;;;;;;5093885;28;20107;-72
2022/06/01 08:40:02;;;;;;;22.17;8.27;;;;;;;;;;5093980;28;20038;-72
2022/06/01 08:42:29;;;;;;;58.90;21.07;;;;;;;;;;5090978;28;20438;-71
2022/06/01 08:44:59;;;;;;;26.83;10.67;;;;;;;;;;5088462;28;20028;-72
2022/06/01 08:47:30;;;;;;;8.10;3.53;;;;;;;;;;5088390;28;20096;-71
2022/06/01 08:49:59;;;;;;;21.10;7.20;;;;;;;;;;5088308;28;20126;-72
2022/06/01 08:52:26;;;;;;;63.30;22.93;;;;;;;;;;5089995;28;20032;-72
2022/06/01 08:54:52;;;;;;;52.50;20.43;;;;;;;;;;5093734;28;20020;-71
2022/06/01 08:57:45;;;;;;;24.07;7.97;;;;;;;;;;5093436;28;20498;-71
2022/06/01 09:00:17;;;;;;;7.73;2.73;;;;;;;;;;5055012;28;20028;-72
2022/06/01 09:02:43;;;;;;;4.63;1.60;;;;;;;;;;5093639;28;20022;-71
2022/06/01 09:05:33;;;;;;;4.40;1.20;;;;;;;;;;5090100;28;20020;-72
2022/06/01 09:08:08;;;;;;;2.80;1.40;;;;;;;;;;5087364;28;20521;-71
2022/06/01 09:10:47;;;;;;;6.40;1.87;;;;;;;;;;5087802;28;20020;-72
2022/06/01 09:13:15;;;;;;;3.77;1.20;;;;;;;;;;5087638;28;20031;-71
2022/06/01 09:15:50;;;;;;;3.33;1.47;;;;;;;;;;5092204;28;20028;-72
2022/06/01 09:18:23;;;;;;;3.63;0.90;;;;;;;;;;5093419;28;20100;-71
2022/06/01 09:23:34;;;;;;;1.35;0.80;;;;;;;;;;5093068;28;20055;-72
2022/06/01 09:26:03;;;;;;;3.73;0.70;;;;;;;;;;5092245;28;20024;-71
2022/06/01 09:28:30;;;;;;;1.17;0.70;;;;;;;;;;5087609;28;20024;-72
2022/06/01 09:31:19;;;;;;;4.33;1.00;;;;;;;;;;5086370;28;20501;-71
2022/06/01 09:33:46;;;;;;;1.30;0.83;;;;;;;;;;5087691;28;20167;-72
2022/06/01 09:36:12;;;;;;;1.60;0.80;;;;;;;;;;5088308;28;20378;-71
2022/06/01 09:38:51;;;;;;;1.30;0.80;;;;;;;;;;5093014;28;20020;-72
2022/06/01 09:41:24;;;;;;;1.37;0.90;;;;;;;;;;5092829;28;20424;-72
2022/06/01 09:44:01;;;;;;;1.93;0.70;;;;;;;;;;5093022;28;20103;-71
2022/06/01 09:46:38;;;;;;;1.60;0.90;;;;;;;;;;5092974;28;20077;-71
2022/06/01 09:49:05;;;;;;;2.17;1.07;;;;;;;;;;5090014;28;20028;-71
2022/06/01 09:51:33;;;;;;;2.10;0.80;;;;;;;;;;5087266;28;20095;-71
2022/06/01 09:54:12;;;;;;;2.33;1.00;;;;;;;;;;5087331;28;20020;-71
2022/06/01 09:56:47;;;;;;;1.17;0.70;;;;;;;;;;5087220;28;20493;-71
2022/06/01 10:07:46;;;;;;;3.85;0.88;;;;;;;;;;5092689;28;20116;-71
2022/06/01 10:10:23;;;;;;;1.40;0.90;;;;;;;;;;5092469;28;20027;-71
2022/06/01 10:12:55;;;;;;;7.47;0.93;;;;;;;;;;5086610;28;20043;-72
2022/06/01 10:15:26;;;;;;;1.47;0.90;;;;;;;;;;5086477;28;20035;-72
2022/06/01 10:17:54;;;;;;;1.07;0.70;;;;;;;;;;5087040;28;20027;-71
2022/06/01 10:20:24;;;;;;;1.73;0.83;;;;;;;;;;5086784;28;20031;-72
2022/06/01 10:22:57;;;;;;;1.73;0.90;;;;;;;;;;5092128;28;20028;-71
2022/06/01 10:25:50;;;;;;;1.20;0.67;;;;;;;;;;5092242;28;20107;-71
2022/06/01 10:28:19;;;;;;;1.20;0.90;;;;;;;;;;5054236;28;20031;-72
2022/06/01 10:30:51;;;;;;;1.47;0.90;;;;;;;;;;5091911;28;20354;-71
2022/06/01 10:33:20;;;;;;;1.97;0.93;;;;;;;;;;5090649;28;20020;-71
2022/06/01 10:35:59;;;;;;;2.30;1.00;;;;;;;;;;5086183;28;20024;-72
2022/06/01 10:38:27;;;;;;;21.50;6.77;;;;;;;;;;5087636;28;20020;-72
2022/06/01 10:41:07;;;;;;;6.97;2.60;;;;;;;;;;5090801;28;20028;-72
2022/06/01 10:43:53;;;;;;;2.20;1.30;;;;;;;;;;5092814;28;20169;-71
2022/06/01 10:46:31;;;;;;;1.27;0.97;;;;;;;;;;5095758;28;20040;-71
2022/06/01 10:49:12;;;;;;;3.20;1.47;;;;;;;;;;5096168;28;20072;-71
2022/06/01 10:51:39;;;;;;;6.90;2.03;;;;;;;;;;5095609;28;20035;-72
2022/06/01 10:54:20;;;;;;;1.97;1.17;;;;;;;;;;5096210;28;20027;-72
2022/06/01 10:56:47;;;;;;;5.33;0.87;;;;;;;;;;5091677;28;20028;-72
2022/06/01 10:59:16;;;;;;;12.50;3.13;;;;;;;;;;5090007;28;20020;-72
2022/06/01 11:02:21;;;;;;;24.50;7.37;;;;;;;;;;5090285;28;20020;-71
2022/06/01 11:05:20;;;;;;;41.88;9.48;;;;;;;;;;4988108;28;20474;-71
2022/06/01 11:08:04;;;;;;;30.13;8.50;;;;;;;;;;4962733;28;20092;-71
2022/06/01 11:10:34;;;;;;;12.00;3.90;;;;;;;;;;5061347;28;20065;-71
2022/06/01 11:13:04;;;;;;;6.17;2.33;;;;;;;;;;5075415;28;20269;-71
2022/06/01 11:15:30;;;;;;;10.23;2.60;;;;;;;;;;5082911;28;20374;-72
2022/06/01 11:18:08;;;;;;;6.70;2.00;;;;;;;;;;5093776;28;20045;-71
2022/06/01 11:20:43;;;;;;;3.70;1.57;;;;;;;;;;5090074;28;20440;-72
2022/06/01 11:23:22;;;;;;;2.00;0.97;;;;;;;;;;5090022;28;20023;-72
2022/06/01 11:26:03;;;;;;;1.17;0.70;;;;;;;;;;5089419;28;20119;-72
2022/06/01 11:28:50;;;;;;;2.07;1.03;;;;;;;;;;5092909;28;20071;-71
2022/06/01 11:31:21;;;;;;;2.27;0.90;;;;;;;;;;5095036;28;20031;-71
2022/06/01 11:34:06;;;;;;;4.70;1.30;;;;;;;;;;5095064;28;20501;-74
2022/06/01 11:36:36;;;;;;;2.15;1.00;;;;;;;;;;5095372;28;20028;-71
2022/06/01 11:39:05;;;;;;;3.20;1.40;;;;;;;;;;5095371;28;20107;-74
2022/06/01 11:41:34;;;;;;;31.17;11.47;;;;;;;;;;5090191;28;20028;-74
2022/06/01 11:44:08;;;;;;;73.60;17.70;;;;;;;;;;5089674;28;20062;-74
2022/06/01 11:46:35;;;;;;;8.93;3.57;;;;;;;;;;5089665;28;20478;-74
2022/06/01 11:49:04;;;;;;;10.33;3.50;;;;;;;;;;5088739;28;20111;-74
2022/06/01 11:51:37;;;;;;;57.23;17.07;;;;;;;;;;5094086;28;20036;-71
2022/06/01 11:54:08;;;;;;;6.53;2.47;;;;;;;;;;5094993;28;20028;-72
2022/06/01 11:56:35;;;;;;;3.53;1.80;;;;;;;;;;5094955;28;20027;-71
2022/06/01 11:59:08;;;;;;;5.23;1.60;;;;;;;;;;5094857;28;20027;-71
2022/06/01 12:01:54;;;;;;;4.30;1.20;;;;;;;;;;5094881;28;20024;-71
2022/06/01 12:04:24;;;;;;;9.60;1.80;;;;;;;;;;5037548;28;20042;-71
2022/06/01 12:06:53;;;;;;;9.03;2.40;;;;;;;;;;5068962;28;20033;-72
2022/06/01 12:09:36;;;;;;;4.60;2.10;;;;;;;;;;5069042;28;20024;-71
2022/06/01 12:12:03;;;;;;;16.37;4.50;;;;;;;;;;5069426;28;20037;-70
2022/06/01 12:14:40;;;;;;;2.40;1.43;;;;;;;;;;5074163;28;20111;-72
2022/06/01 12:17:18;;;;;;;3.67;1.40;;;;;;;;;;5074359;28;20024;-71
2022/06/01 12:20:14;;;;;;;7.90;1.77;;;;;;;;;;5074295;28;20051;-72
2022/06/01 12:28:53;;;;;;;3.77;1.20;;;;;;;;;;5088842;28;20088;-71
2022/06/01 12:31:24;;;;;;;1.73;0.90;;;;;;;;;;5088440;28;20119;-72
2022/06/01 12:34:09;;;;;;;2.53;1.10;;;;;;;;;;5088258;28;20043;-72
2022/06/01 12:36:43;;;;;;;2.00;1.20;;;;;;;;;;5094279;28;20027;-71
2022/06/01 12:39:14;;;;;;;6.77;1.20;;;;;;;;;;5093962;28;20103;-71
2022/06/01 12:41:44;;;;;;;6.30;1.63;;;;;;;;;;5093735;28;20031;-71
2022/06/01 12:44:12;;;;;;;3.67;1.40;;;;;;;;;;5093998;28;20402;-72
2022/06/01 12:46:43;;;;;;;2.67;1.43;;;;;;;;;;5092645;28;20020;-72
2022/06/01 12:49:22;;;;;;;4.80;1.20;;;;;;;;;;5088189;28;20024;-71
2022/06/01 12:51:50;;;;;;;1.90;1.20;;;;;;;;;;5088340;28;20035;-71
2022/06/01 12:54:31;;;;;;;8.50;1.90;;;;;;;;;;5087973;28;20031;-72
2022/06/01 12:56:58;;;;;;;2.20;1.40;;;;;;;;;;5090091;28;20020;-72
2022/06/01 12:59:28;;;;;;;3.10;1.37;;;;;;;;;;5093240;28;20505;-71
2022/06/01 13:02:00;;;;;;;2.40;1.40;;;;;;;;;;5092689;28;20038;-71
2022/06/01 13:04:27;;;;;;;4.70;1.77;;;;;;;;;;5092550;28;20028;-74
2022/06/01 13:06:55;;;;;;;3.63;1.97;;;;;;;;;;5093284;28;20028;-74
2022/06/01 13:09:24;;;;;;;3.07;1.37;;;;;;;;;;5090903;28;20077;-74
2022/06/01 13:12:02;;;;;;;2.37;1.50;;;;;;;;;;5088095;28;20356;-76
2022/06/01 13:14:30;;;;;;;3.27;1.70;;;;;;;;;;5087918;28;20478;-76
2022/06/01 13:17:10;;;;;;;3.87;2.20;;;;;;;;;;5087685;28;20028;-77
2022/06/01 13:19:38;;;;;;;4.60;1.90;;;;;;;;;;5090220;28;20024;-77
2022/06/01 13:22:17;;;;;;;2.30;1.50;;;;;;;;;;5092711;28;20077;-76
2022/06/01 13:24:56;;;;;;;9.97;4.23;;;;;;;;;;5093003;28;20118;-76
2022/06/01 13:27:24;;;;;;;4.17;2.80;;;;;;;;;;5093058;28;20031;-77
2022/06/01 13:29:58;;;;;;;4.63;2.27;;;;;;;;;;5093225;28;20035;-76
2022/06/01 13:32:31;;;;;;;16.98;5.40;;;;;;;;;;5088654;28;20024;-77
2022/06/01 13:35:02;;;;;;;7.13;2.83;;;;;;;;;;5086053;28;20028;-77
2022/06/01 13:37:30;;;;;;;11.27;4.33;;;;;;;;;;5086136;28;20020;-77
2022/06/01 13:40:05;;;;;;;12.03;5.37;;;;;;;;;;5087428;28;20024;-76
2022/06/01 13:42:36;;;;;;;13.23;5.10;;;;;;;;;;5091603;28;20375;-76
2022/06/01 13:45:11;;;;;;;9.97;4.90;;;;;;;;;;5092310;28;20050;-77
2022/06/01 13:47:44;;;;;;;6.60;3.17;;;;;;;;;;5091978;28;20099;-78
2022/06/01 13:50:20;;;;;;;4.40;3.03;;;;;;;;;;5092435;28;20100;-77
2022/06/01 13:52:46;;;;;;;4.37;2.97;;;;;;;;;;5092580;28;20888;-77
2022/06/01 13:55:23;;;;;;;6.80;3.30;;;;;;;;;;5088686;28;20024;-78
2022/06/01 13:57:54;;;;;;;10.33;3.07;;;;;;;;;;5087253;28;20041;-78
2022/06/01 14:00:31;;;;;;;6.10;2.80;;;;;;;;;;5087969;28;20020;-77
2022/06/01 14:03:07;;;;;;;4.70;3.30;;;;;;;;;;5087943;28;20486;-77
2022/06/01 14:05:37;;;;;;;6.37;3.20;;;;;;;;;;5088225;28;20058;-77
2022/06/01 14:08:06;;;;;;;7.80;3.30;;;;;;;;;;5091398;28;20065;-77
2022/06/01 14:10:34;;;;;;;5.23;3.27;;;;;;;;;;5092448;28;20016;-77
2022/06/01 14:13:01;;;;;;;6.53;3.93;;;;;;;;;;5092228;28;20027;-78
2022/06/01 14:15:28;;;;;;;5.20;3.70;;;;;;;;;;5092402;28;20028;-77
2022/06/01 14:17:55;;;;;;;5.37;4.30;;;;;;;;;;5092379;28;20031;-77
2022/06/01 14:20:21;;;;;;;6.87;3.93;;;;;;;;;;5087453;28;20028;-78
2022/06/01 14:22:48;;;;;;;7.20;4.10;;;;;;;;;;5087345;28;20028;-78
2022/06/01 14:30:45;;;;;;;6.80;2.73;;;;;;;;;;5088170;28;20506;-78
2022/06/01 14:33:12;;;;;;;4.53;3.03;;;;;;;;;;5092013;28;20437;-78
2022/06/01 14:35:39;;;;;;;3.40;2.40;;;;;;;;;;5092095;28;20489;-77
2022/06/01 14:38:05;;;;;;;5.60;2.43;;;;;;;;;;5092367;28;20028;-77
2022/06/01 14:40:32;;;;;;;3.23;2.07;;;;;;;;;;5092098;28;20123;-78
2022/06/01 14:43:02;;;;;;;3.77;2.10;;;;;;;;;;5091460;28;20025;-77
2022/06/01 14:45:29;;;;;;;3.60;2.50;;;;;;;;;;5086572;28;20028;-76
2022/06/01 14:47:55;;;;;;;3.03;1.80;;;;;;;;;;5087115;28;20024;-75
2022/06/01 14:50:22;;;;;;;3.00;1.37;;;;;;;;;;5087361;28;20111;-75
2022/06/01 14:52:49;;;;;;;2.20;1.40;;;;;;;;;;5087159;28;20555;-75
2022/06/01 14:55:16;;;;;;;3.03;1.30;;;;;;;;;;5088167;28;20027;-75
2022/06/01 14:57:43;;;;;;;1.10;0.90;;;;;;;;;;5091834;28;20032;-75
2022/06/01 15:00:10;;;;;;;2.30;1.30;;;;;;;;;;5091805;28;20032;-75
2022/06/01 15:02:41;;;;;;;4.97;1.73;;;;;;;;;;5091473;28;20027;-75
2022/06/01 15:05:08;;;;;;;2.27;1.30;;;;;;;;;;5091948;28;20374;-76
2022/06/01 15:07:35;;;;;;;2.10;1.30;;;;;;;;;;5091539;28;20024;-75
2022/06/01 15:10:01;;;;;;;4.53;1.17;;;;;;;;;;5087159;28;20027;-75
2022/06/01 15:12:28;;;;;;;2.83;1.30;;;;;;;;;;5086929;28;20213;-75
2022/06/01 15:14:55;;;;;;;2.87;1.47;;;;;;;;;;5087059;28;20033;-75
2022/06/01 15:17:26;;;;;;;1.97;1.40;;;;;;;;;;5086905;28;20031;-75
2022/06/01 15:19:54;;;;;;;2.27;1.37;;;;;;;;;;5087557;28;20517;-75
2022/06/01 15:22:21;;;;;;;3.07;1.33;;;;;;;;;;5091675;28;20016;-76
2022/06/01 15:24:48;;;;;;;2.60;1.20;;;;;;;;;;5092903;28;20516;-75
2022/06/01 15:27:17;;;;;;;2.77;1.60;;;;;;;;;;5095469;28;20417;-76
2022/06/01 15:40:44;;;;;;;2.70;1.60;;;;;;;;;;5090552;28;20039;-75
2022/06/01 15:43:11;;;;;;;4.93;1.77;;;;;;;;;;5090178;28;20024;-76